Altamont, New York
Current Conditions -  °F | °C
As of 4:51 AM on Saturday 01 Nov 2014 (Local Time) from KALB Reporting Station
Overcast Overcast  
Wind Chill:   Ceiling: 8000
Heat Index:   Visibility: 10mi
Dew Point: -1°   Wind: 7mph
Humidity: 67%   Direction: 360°N
Pressure: 29.95"   Gusts: NA
Location:  42.7°N, 74.03°W
Report Text: KALB 010851Z 36006KT 10SM OVC080 05/M01 A2995 RMK AO2 SLP143 T00501006 55005
Loading
Personal Weather Stations






























Interactive Weather Map
Tropical Storm Tracking
New forecast layout! Learn more

10-Day Weather Forecast

Advertisements
Track Severe Weather on mobile